Погода Луангпхабангна неделю

Луангпхабанг, Лаос

01 - 07 марта
  • 01марта
    Сегодня
    +19°
    +36°
    Ясно и безоблачно
    ВремяПогодаТемператураВлажностьДавлениеВетер, м/сВероятность осадков
    01:00Ясно и безоблачно+25°C82 %732 мм0.8 м/с2 %
    04:00Ясно и безоблачно+22°C86 %731 мм0.6 м/с2 %
    07:00Практически безоблачно+21°C91 %733 мм0.6 м/с3 %
    10:00Небольшая облачность+27°C57 %735 мм1.1 м/с6 %
    13:00Ясно и безоблачно+33°C41 %732 мм2.5 м/с21 %
    16:00Практически безоблачно+35°C42 %731 мм2.8 м/с16 %
    19:00Практически безоблачно+29°C65 %732 мм1.2 м/с13 %
    22:00Ясно и безоблачно+25°C91 %734 мм1.0 м/с3 %
  • 02марта
    Суббота
    +19°
    +33°
    Практически безоблачно
    ВремяПогодаТемператураВлажностьДавлениеВетер, м/сВероятность осадков
    01:00Небольшая облачность+23°C97 %734 мм0.3 м/с2 %
    04:00Облачно с прояснениями+21°C98 %733 мм0.7 м/с2 %
    07:00Пасмурно, сплошная облачность+20°C87 %735 мм0.9 м/с3 %
    10:00Пасмурно, сплошная облачность+25°C65 %737 мм1.3 м/с12 %
    13:00Практически безоблачно+31°C51 %734 мм2.2 м/с28 %
    16:00Ясно и безоблачно+33°C40 %731 мм2.2 м/с35 %
    19:00Ясно и безоблачно+29°C49 %732 мм0.9 м/с2 %
    22:00Ясно и безоблачно+24°C73 %733 мм1.0 м/с2 %
  • 03марта
    Воскресенье
    +20°
    +35°
    Ясно и безоблачно
    ВремяПогодаТемператураВлажностьДавлениеВетер, м/сВероятность осадков
    01:00Ясно и безоблачно+22°C91 %733 мм0.4 м/с2 %
    04:00Облачно с прояснениями+20°C95 %732 мм0.3 м/с2 %
    07:00Практически безоблачно+20°C94 %734 мм0.7 м/с5 %
    10:00Ясно и безоблачно+26°C54 %735 мм1.3 м/с2 %
    13:00Ясно и безоблачно+32°C35 %732 мм2.9 м/с5 %
    16:00Ясно и безоблачно+35°C32 %729 мм2.9 м/с2 %
    19:00Ясно и безоблачно+29°C44 %729 мм1.2 м/с2 %
    22:00Ясно и безоблачно+25°C64 %731 мм1.0 м/с2 %
  • 04марта
    Понедельник
    +19°
    +37°
    Ясно и безоблачно
    ВремяПогодаТемператураВлажностьДавлениеВетер, м/сВероятность осадков
    01:00Ясно и безоблачно+23°C79 %730 мм0.9 м/с2 %
    04:00Ясно и безоблачно+21°C87 %730 мм0.7 м/с2 %
    07:00Ясно и безоблачно+21°C90 %731 мм0.8 м/с2 %
    10:00Ясно и безоблачно+28°C48 %732 мм1.7 м/с2 %
    13:00Ясно и безоблачно+33°C20 %729 мм2.8 м/с2 %
    16:00Ясно и безоблачно+36°C14 %727 мм3.5 м/с2 %
    19:00Ясно и безоблачно+30°C28 %728 мм0.9 м/с2 %
    22:00Ясно и безоблачно+26°C39 %729 мм0.8 м/с2 %
  • 05марта
    Вторник
    +19°
    +38°
    Ясно и безоблачно
    ВремяПогодаТемператураВлажностьДавлениеВетер, м/сВероятность осадков
    01:00Ясно и безоблачно+23°C54 %729 мм0.5 м/с2 %
    04:00Ясно и безоблачно+20°C67 %729 мм0.8 м/с2 %
    07:00Ясно и безоблачно+20°C72 %730 мм0.4 м/с2 %
    10:00Ясно и безоблачно+27°C30 %732 мм1.2 м/с2 %
    13:00Ясно и безоблачно+34°C16 %729 мм2.7 м/с2 %
    16:00Ясно и безоблачно+37°C14 %727 мм3.3 м/с2 %
    19:00Ясно и безоблачно+31°C26 %728 мм0.9 м/с2 %
    22:00Ясно и безоблачно+26°C39 %729 мм0.8 м/с2 %
Мы используем cookies
Соглашаюсь